Time;durP1;ratioP1;P1;durP2;ratioP2;P2;SDS_P1;SDS_P2;PMS_P1;PMS_P2;Temp;Humidity;BMP_temperature;BMP_pressure;BME280_temperature;BME280_humidity;BME280_pressure;Samples;Min_cycle;Max_cycle;Signal;HPM_P1;HPM_P2
2022/08/18 00:00:30;;;;;;;4.77;3.80;;;25.80;40.40;;;;;;4969491;28;20772;-43
2022/08/18 00:03:06;;;;;;;6.60;4.10;;;25.80;40.10;;;;;;4970560;28;20408;-42
2022/08/18 00:05:32;;;;;;;6.83;4.60;;;25.80;40.20;;;;;;4970466;28;20811;-43
2022/08/18 00:07:58;;;;;;;4.90;3.87;;;25.80;40.30;;;;;;4970501;28;20403;-43
2022/08/18 00:10:25;;;;;;;7.27;4.57;;;25.70;40.30;;;;;;4970268;28;20410;-43
2022/08/18 00:12:51;;;;;;;6.47;3.80;;;25.70;40.40;;;;;;4970597;28;20783;-44
2022/08/18 00:15:18;;;;;;;4.80;4.17;;;25.70;40.60;;;;;;4970338;28;20408;-43
2022/08/18 00:17:45;;;;;;;4.73;3.90;;;25.70;40.70;;;;;;4970121;28;20810;-44
2022/08/18 00:20:17;;;;;;;4.90;4.10;;;25.70;40.80;;;;;;4970490;28;20423;-44
2022/08/18 00:22:42;;;;;;;5.47;4.40;;;25.70;40.80;;;;;;4970640;28;20491;-44
2022/08/18 00:25:11;;;;;;;5.10;4.47;;;25.60;40.80;;;;;;4970313;28;20530;-43
2022/08/18 00:27:38;;;;;;;6.30;5.60;;;25.60;40.90;;;;;;4970023;28;20172;-43
2022/08/18 00:30:14;;;;;;;5.97;4.13;;;25.60;40.90;;;;;;4970194;28;20422;-44
2022/08/18 00:32:42;;;;;;;7.03;5.40;;;25.50;41.10;;;;;;4970159;28;20427;-43
2022/08/18 00:35:14;;;;;;;9.80;5.13;;;25.50;41.20;;;;;;4970326;28;20419;-43
2022/08/18 00:37:41;;;;;;;6.10;5.17;;;25.40;41.00;;;;;;4969978;28;20431;-43
2022/08/18 00:40:09;;;;;;;6.77;4.20;;;25.40;40.90;;;;;;4970052;28;20450;-43
2022/08/18 00:42:47;;;;;;;6.30;4.93;;;25.40;40.90;;;;;;4970114;28;20427;-43
2022/08/18 00:45:19;;;;;;;7.10;5.10;;;25.40;41.10;;;;;;4968776;28;20811;-43
2022/08/18 00:47:45;;;;;;;6.30;5.23;;;25.40;41.10;;;;;;4969924;28;20410;-43
2022/08/18 00:50:29;;;;;;;6.07;4.70;;;25.40;41.20;;;;;;4969929;28;20945;-42
2022/08/18 00:53:26;;;;;;;6.17;4.53;;;25.30;41.30;;;;;;4969953;28;20435;-42
2022/08/18 00:55:53;;;;;;;5.80;5.00;;;25.30;41.50;;;;;;5021722;28;20455;-43
2022/08/18 00:58:33;;;;;;;5.97;4.80;;;25.30;41.40;;;;;;4969912;28;20476;-43
2022/08/18 01:01:02;;;;;;;5.60;4.30;;;25.30;41.60;;;;;;4969862;28;20439;-42
2022/08/18 01:03:29;;;;;;;6.20;5.60;;;25.20;41.30;;;;;;4969741;28;20961;-43
2022/08/18 01:06:02;;;;;;;5.83;4.93;;;25.30;41.10;;;;;;4969686;28;20458;-43
2022/08/18 01:08:28;;;;;;;5.20;4.27;;;25.20;41.20;;;;;;4969808;28;20508;-43
2022/08/18 01:10:54;;;;;;;5.87;4.50;;;25.20;41.50;;;;;;4971392;28;20791;-43
2022/08/18 01:13:24;;;;;;;6.00;4.23;;;25.20;41.30;;;;;;4973194;28;20422;-43
2022/08/18 01:15:50;;;;;;;5.90;5.30;;;25.10;41.30;;;;;;4972756;28;20412;-43
2022/08/18 01:24:07;;;;;;;7.30;4.60;;;25.00;41.90;;;;;;4973108;28;20814;-43
2022/08/18 01:26:37;;;;;;;4.60;3.70;;;25.00;42.70;;;;;;4972757;28;20488;-43
2022/08/18 01:29:10;;;;;;;5.70;5.10;;;24.90;42.60;;;;;;4972761;28;20392;-43
2022/08/18 01:31:46;;;;;;;6.47;4.57;;;24.90;41.80;;;;;;4973024;28;20851;-43
2022/08/18 01:34:12;;;;;;;6.63;5.40;;;24.90;41.80;;;;;;4972896;28;20406;-42
2022/08/18 01:36:41;;;;;;;7.83;5.00;;;24.80;41.80;;;;;;4972443;28;20476;-43
2022/08/18 01:39:11;;;;;;;5.60;4.77;;;24.80;42.00;;;;;;4972659;28;20407;-43
2022/08/18 01:41:38;;;;;;;5.10;4.60;;;24.80;42.00;;;;;;4972597;28;20957;-43
2022/08/18 01:44:04;;;;;;;6.37;5.33;;;24.70;42.20;;;;;;4972730;28;20477;-42
2022/08/18 01:46:33;;;;;;;6.47;4.77;;;24.70;42.40;;;;;;4972192;28;20416;-43
2022/08/18 01:49:00;;;;;;;6.67;5.70;;;24.70;42.60;;;;;;4972300;28;20408;-43
2022/08/18 01:51:28;;;;;;;6.03;5.10;;;24.70;42.40;;;;;;4972500;28;20427;-43
2022/08/18 01:53:55;;;;;;;8.10;6.13;;;24.70;42.50;;;;;;4972499;28;20415;-43
2022/08/18 01:56:21;;;;;;;6.30;4.47;;;24.70;42.70;;;;;;4972120;28;20462;-43
2022/08/18 01:58:47;;;;;;;6.47;5.43;;;24.70;43.00;;;;;;4972293;28;20404;-43
2022/08/18 02:01:14;;;;;;;7.30;4.50;;;24.60;42.80;;;;;;4971991;28;20459;-43
2022/08/18 02:03:45;;;;;;;7.53;5.00;;;24.60;42.70;;;;;;4972296;28;20255;-43
2022/08/18 02:06:14;;;;;;;5.63;3.77;;;24.60;42.60;;;;;;4971968;28;20392;-43
2022/08/18 02:08:40;;;;;;;5.03;4.50;;;24.60;42.70;;;;;;4972220;28;20494;-43
2022/08/18 02:11:07;;;;;;;6.73;5.07;;;24.60;42.70;;;;;;4972351;28;20581;-43
2022/08/18 02:13:33;;;;;;;6.17;4.73;;;24.60;42.60;;;;;;4972183;28;20408;-42
2022/08/18 02:15:59;;;;;;;5.50;4.90;;;24.60;42.60;;;;;;4971758;28;20895;-43
2022/08/18 02:18:32;;;;;;;6.90;5.33;;;24.60;43.40;;;;;;4971995;28;20419;-43
2022/08/18 02:21:06;;;;;;;5.97;5.37;;;24.60;42.60;;;;;;4971981;28;20927;-43
2022/08/18 02:23:32;;;;;;;5.10;4.60;;;24.60;42.60;;;;;;4971331;28;20962;-43
2022/08/18 02:25:58;;;;;;;7.90;5.33;;;24.60;42.40;;;;;;4971496;28;20550;-43
2022/08/18 02:28:24;;;;;;;5.43;4.23;;;24.60;42.20;;;;;;4971758;28;20414;-43
2022/08/18 02:30:50;;;;;;;7.70;5.13;;;24.60;42.20;;;;;;4971873;28;20184;-43
2022/08/18 02:33:15;;;;;;;5.90;5.20;;;24.60;42.40;;;;;;4971756;28;20921;-43
2022/08/18 02:35:42;;;;;;;6.90;4.70;;;24.60;42.50;;;;;;4971672;28;20187;-43
2022/08/18 02:38:08;;;;;;;7.97;4.87;;;24.60;42.50;;;;;;4971693;28;20180;-43
2022/08/18 02:40:34;;;;;;;6.07;4.80;;;24.60;42.40;;;;;;4971768;28;20408;-43
2022/08/18 02:43:08;;;;;;;5.67;4.60;;;24.60;42.40;;;;;;4971633;28;20978;-43
2022/08/18 02:45:38;;;;;;;5.23;4.43;;;24.60;42.60;;;;;;4971509;28;20200;-43
2022/08/18 02:48:06;;;;;;;6.20;5.40;;;24.50;42.60;;;;;;4971510;28;20490;-43
2022/08/18 02:50:32;;;;;;;7.37;4.87;;;24.60;42.60;;;;;;4971517;28;20498;-43
2022/08/18 02:53:00;;;;;;;5.43;4.33;;;24.60;42.60;;;;;;4971522;28;20950;-43
2022/08/18 02:55:28;;;;;;;5.53;4.80;;;24.60;42.60;;;;;;4971369;28;20431;-43
2022/08/18 02:57:54;;;;;;;6.70;5.17;;;24.50;42.70;;;;;;4971457;28;20411;-43
2022/08/18 03:00:19;;;;;;;7.40;4.77;;;24.50;42.60;;;;;;4971606;28;20473;-43
2022/08/18 03:02:47;;;;;;;4.90;3.80;;;24.50;42.90;;;;;;4971393;28;20420;-43
2022/08/18 03:05:14;;;;;;;10.90;4.60;;;24.50;43.00;;;;;;4971202;28;20550;-42
2022/08/18 03:07:39;;;;;;;5.53;4.77;;;24.50;43.00;;;;;;4971082;28;20774;-43
2022/08/18 03:10:06;;;;;;;6.57;5.13;;;24.40;43.00;;;;;;4971295;28;20518;-41
2022/08/18 03:12:32;;;;;;;6.70;5.20;;;24.40;42.80;;;;;;4971238;28;20675;-43
2022/08/18 03:15:00;;;;;;;5.83;5.23;;;24.40;43.20;;;;;;4971348;28;20426;-42
2022/08/18 03:17:26;;;;;;;7.70;6.03;;;24.40;43.10;;;;;;4971168;28;20255;-42
2022/08/18 03:19:52;;;;;;;4.93;4.43;;;24.40;43.20;;;;;;4971070;28;20774;-43
2022/08/18 03:22:18;;;;;;;5.13;4.63;;;24.30;43.30;;;;;;4970910;28;20431;-43
2022/08/18 03:24:44;;;;;;;5.40;4.90;;;24.40;43.20;;;;;;4971101;28;20447;-43
2022/08/18 03:27:10;;;;;;;6.57;5.27;;;24.30;43.40;;;;;;4970700;28;20176;-44
2022/08/18 03:29:36;;;;;;;6.37;4.40;;;24.30;43.40;;;;;;4970960;28;20176;-44
2022/08/18 03:32:03;;;;;;;7.47;5.70;;;24.30;43.40;;;;;;4970786;28;20432;-43
2022/08/18 03:34:30;;;;;;;6.20;4.97;;;24.30;43.50;;;;;;4970886;28;20818;-43
2022/08/18 03:36:56;;;;;;;5.70;4.90;;;24.30;43.70;;;;;;4970830;28;20423;-43
2022/08/18 03:39:22;;;;;;;6.83;5.30;;;24.20;43.50;;;;;;4970776;28;20954;-43
2022/08/18 03:41:53;;;;;;;5.73;4.83;;;24.20;43.60;;;;;;4970879;28;20470;-43
2022/08/18 03:44:19;;;;;;;7.80;5.13;;;24.20;43.50;;;;;;4970788;28;20485;-43
2022/08/18 03:46:46;;;;;;;5.50;4.27;;;24.20;43.60;;;;;;4970448;28;20871;-43
2022/08/18 03:49:12;;;;;;;6.87;5.70;;;24.20;43.50;;;;;;4970719;28;20416;-43
2022/08/18 03:51:45;;;;;;;7.60;5.33;;;24.20;44.10;;;;;;4970713;28;20435;-44
2022/08/18 03:54:12;;;;;;;12.27;5.10;;;24.20;43.40;;;;;;4970899;28;20471;-43
2022/08/18 03:56:40;;;;;;;5.87;5.00;;;24.20;43.40;;;;;;4970438;28;20870;-44
2022/08/18 03:59:16;;;;;;;6.90;5.47;;;24.20;43.60;;;;;;4970592;28;20814;-43
2022/08/18 04:01:44;;;;;;;6.00;5.20;;;24.20;43.80;;;;;;4970411;28;20791;-43
2022/08/18 04:04:13;;;;;;;5.43;4.77;;;24.00;44.00;;;;;;4970392;28;20452;-43
2022/08/18 04:06:48;;;;;;;7.17;5.57;;;24.00;44.10;;;;;;4970265;28;20399;-43
2022/08/18 04:09:16;;;;;;;8.60;5.83;;;24.00;44.00;;;;;;4970685;28;20396;-43
2022/08/18 04:11:42;;;;;;;6.77;5.40;;;24.00;43.90;;;;;;4970348;28;20431;-43
2022/08/18 04:14:11;;;;;;;7.30;5.47;;;24.00;43.70;;;;;;4970315;28;20465;-43
2022/08/18 04:16:38;;;;;;;5.43;4.27;;;24.00;43.60;;;;;;4968744;28;20950;-42
2022/08/18 04:19:04;;;;;;;7.03;5.70;;;24.00;43.50;;;;;;4970185;28;20423;-43
2022/08/18 04:21:32;;;;;;;6.07;5.40;;;23.90;43.50;;;;;;4970206;28;20431;-43
2022/08/18 04:24:06;;;;;;;8.60;6.00;;;23.90;43.80;;;;;;4970156;28;20418;-43
2022/08/18 04:26:35;;;;;;;10.10;6.30;;;23.90;43.70;;;;;;4968700;28;20779;-43
2022/08/18 04:29:01;;;;;;;6.90;6.07;;;23.90;43.70;;;;;;4970479;28;20784;-43
2022/08/18 04:31:28;;;;;;;6.80;6.10;;;23.90;43.60;;;;;;4970345;28;20518;-43
2022/08/18 04:33:55;;;;;;;8.97;6.13;;;23.90;43.70;;;;;;4970274;28;20411;-44
2022/08/18 04:36:21;;;;;;;6.90;6.20;;;23.90;43.60;;;;;;4969883;28;20419;-44
2022/08/18 04:38:47;;;;;;;6.87;5.10;;;23.90;43.50;;;;;;4969999;28;20424;-43
2022/08/18 04:41:13;;;;;;;6.50;5.73;;;23.90;43.60;;;;;;4970011;28;20438;-44
2022/08/18 04:43:41;;;;;;;6.60;5.10;;;23.90;43.70;;;;;;4969900;28;20414;-43
2022/08/18 04:46:07;;;;;;;6.73;6.03;;;23.90;43.70;;;;;;4971655;28;20466;-42
2022/08/18 04:48:36;;;;;;;7.60;5.73;;;23.90;43.80;;;;;;4973141;28;20457;-41
2022/08/18 04:51:08;;;;;;;8.30;5.60;;;23.90;44.00;;;;;;4973241;28;20439;-40
2022/08/18 04:53:44;;;;;;;6.50;5.33;;;23.90;44.00;;;;;;4973192;28;20419;-40
2022/08/18 04:56:24;;;;;;;11.00;5.57;;;24.00;44.00;;;;;;4973011;28;20411;-41
2022/08/18 04:58:52;;;;;;;7.60;5.33;;;23.90;44.20;;;;;;4973561;28;20391;-41
2022/08/18 05:01:21;;;;;;;8.77;5.47;;;24.00;44.20;;;;;;4973047;28;20954;-41
2022/08/18 05:03:49;;;;;;;7.10;5.80;;;24.00;44.10;;;;;;4973141;28;20887;-41
2022/08/18 05:06:15;;;;;;;6.40;5.37;;;24.10;44.10;;;;;;4973011;28;20469;-41
2022/08/18 05:08:40;;;;;;;7.40;5.23;;;24.10;44.00;;;;;;4973332;28;20779;-41
2022/08/18 05:11:06;;;;;;;4.97;4.13;;;24.20;43.80;;;;;;4972940;28;20505;-41
2022/08/18 05:13:32;;;;;;;8.17;5.37;;;24.30;43.50;;;;;;4972990;28;20172;-40
2022/08/18 05:16:02;;;;;;;6.13;5.50;;;24.40;43.00;;;;;;4972761;28;20419;-41
2022/08/18 05:18:35;;;;;;;7.97;6.10;;;24.50;42.80;;;;;;4973253;28;20163;-40
2022/08/18 05:21:01;;;;;;;9.90;4.53;;;24.60;42.50;;;;;;4972835;28;20550;-40
2022/08/18 05:23:28;;;;;;;7.13;5.57;;;24.60;42.30;;;;;;4972738;28;20470;-40
2022/08/18 05:26:00;;;;;;;5.77;4.90;;;24.60;42.00;;;;;;4972779;28;20459;-41
2022/08/18 05:28:26;;;;;;;7.17;5.67;;;24.70;42.20;;;;;;4971459;28;20526;-41
2022/08/18 05:30:52;;;;;;;6.07;4.73;;;24.70;42.30;;;;;;4971471;28;20522;-41
2022/08/18 05:33:18;;;;;;;6.33;5.10;;;24.70;42.20;;;;;;4972679;28;20419;-41
2022/08/18 05:35:48;;;;;;;7.13;5.20;;;24.70;42.20;;;;;;4972402;28;21132;-41
2022/08/18 05:38:52;;;;;;;6.93;5.47;;;24.70;42.30;;;;;;4972614;28;20173;-41
2022/08/18 05:41:28;;;;;;;9.33;5.73;;;24.70;42.60;;;;;;4989867;28;20902;-41
2022/08/18 05:43:57;;;;;;;6.43;5.83;;;24.70;42.70;;;;;;4972478;28;20953;-41
2022/08/18 05:46:37;;;;;;;6.90;5.40;;;24.70;42.70;;;;;;4972223;28;20443;-40
2022/08/18 05:49:03;;;;;;;8.20;4.90;;;24.70;43.00;;;;;;4972482;28;20415;-41
2022/08/18 05:51:42;;;;;;;7.03;5.13;;;24.80;42.90;;;;;;4972376;28;20424;-41
2022/08/18 05:56:59;;;;;;;7.37;5.00;;;24.90;42.60;;;;;;4971301;28;20446;-41
2022/08/18 05:59:30;;;;;;;6.73;5.40;;;25.00;42.60;;;;;;4972352;28;20930;-41
2022/08/18 06:02:06;;;;;;;6.70;5.47;;;25.00;42.60;;;;;;4972232;28;20487;-41
2022/08/18 06:04:40;;;;;;;6.93;5.07;;;25.10;42.70;;;;;;4972147;28;20459;-41
2022/08/18 06:07:11;;;;;;;4.97;4.30;;;25.20;42.10;;;;;;4971032;28;20737;-40
2022/08/18 06:09:44;;;;;;;9.23;6.00;;;25.30;41.80;;;;;;4972124;28;20469;-41
2022/08/18 06:12:32;;;;;;;8.10;5.63;;;25.40;41.80;;;;;;4971997;28;20435;-41
2022/08/18 06:15:16;;;;;;;7.40;5.33;;;25.60;41.50;;;;;;4972109;28;20418;-41
2022/08/18 06:17:45;;;;;;;8.10;5.60;;;25.70;41.10;;;;;;4972073;28;20419;-41
2022/08/18 06:20:20;;;;;;;8.13;5.97;;;25.80;40.60;;;;;;4972123;28;20446;-41
2022/08/18 06:23:03;;;;;;;7.47;5.70;;;25.90;40.80;;;;;;4970842;28;20403;-40
2022/08/18 06:26:03;;;;;;;8.00;5.97;;;26.00;41.20;;;;;;4971882;28;20512;-41
2022/08/18 06:28:44;;;;;;;7.37;5.47;;;26.20;41.30;;;;;;4971899;28;20934;-41
2022/08/18 06:31:45;;;;;;;9.23;6.03;;;26.30;41.00;;;;;;4971720;28;20462;-41
2022/08/18 06:34:25;;;;;;;8.80;4.97;;;26.40;40.90;;;;;;4971765;28;20426;-41
2022/08/18 06:36:57;;;;;;;6.57;5.30;;;26.60;40.80;;;;;;4971763;28;20410;-41
2022/08/18 06:39:48;;;;;;;7.70;6.53;;;26.70;40.50;;;;;;4971738;28;20416;-41
2022/08/18 06:42:24;;;;;;;11.27;5.80;;;26.90;40.00;;;;;;4971720;28;20447;-40
2022/08/18 06:45:01;;;;;;;8.43;6.37;;;27.00;39.90;;;;;;4971595;28;20623;-40
2022/08/18 06:47:45;;;;;;;7.50;5.50;;;27.10;39.60;;;;;;4971739;28;20392;-41
2022/08/18 06:50:21;;;;;;;6.80;5.77;;;27.20;39.30;;;;;;4971535;28;20775;-41
2022/08/18 06:53:07;;;;;;;10.10;5.67;;;27.30;39.10;;;;;;4971438;28;20844;-41
2022/08/18 06:55:40;;;;;;;8.00;5.60;;;27.40;39.50;;;;;;4971147;28;20944;-39
2022/08/18 06:58:29;;;;;;;6.40;5.70;;;27.50;39.40;;;;;;4971740;28;20456;-41
2022/08/18 07:01:00;;;;;;;6.27;5.60;;;27.70;39.70;;;;;;4971250;28;20452;-40
2022/08/18 07:03:38;;;;;;;8.77;6.20;;;27.80;39.90;;;;;;4971678;28;20469;-41
2022/08/18 07:06:10;;;;;;;6.50;5.50;;;28.00;39.80;;;;;;4971307;28;20533;-41
2022/08/18 07:09:15;;;;;;;6.53;5.90;;;28.10;39.90;;;;;;4969600;28;20411;-41
2022/08/18 07:11:56;;;;;;;8.17;6.10;;;28.20;39.20;;;;;;4970854;28;20473;-41
2022/08/18 07:14:24;;;;;;;8.33;5.80;;;28.40;39.00;;;;;;4971240;28;20408;-41
2022/08/18 07:17:04;;;;;;;9.30;5.70;;;28.40;38.50;;;;;;4970912;28;20937;-43
2022/08/18 07:19:31;;;;;;;6.43;5.53;;;28.60;39.00;;;;;;4971112;28;20518;-41
2022/08/18 07:22:13;;;;;;;8.27;6.30;;;28.80;38.80;;;;;;4970917;28;20495;-41
2022/08/18 07:24:48;;;;;;;6.60;5.00;;;28.80;37.90;;;;;;4970968;28;20473;-41
2022/08/18 07:27:35;;;;;;;7.50;4.87;;;28.90;38.10;;;;;;4970988;28;20396;-41
2022/08/18 07:30:18;;;;;;;5.73;5.20;;;29.00;38.70;;;;;;4970859;28;20441;-41
2022/08/18 07:32:52;;;;;;;5.90;5.30;;;29.00;38.50;;;;;;4971269;28;20467;-41
2022/08/18 07:35:26;;;;;;;6.93;5.57;;;29.00;38.90;;;;;;4970970;28;20865;-41
2022/08/18 07:38:03;;;;;;;7.70;5.23;;;29.00;38.50;;;;;;4969578;28;20442;-41
2022/08/18 07:40:39;;;;;;;7.37;6.20;;;29.00;38.20;;;;;;4970869;28;20408;-41
2022/08/18 07:43:13;;;;;;;6.60;5.70;;;29.00;38.20;;;;;;4970778;28;20872;-41
2022/08/18 07:45:45;;;;;;;5.90;5.30;;;29.00;38.10;;;;;;4970853;28;20493;-41
2022/08/18 07:48:37;;;;;;;13.33;5.27;;;29.00;37.30;;;;;;4971231;28;20400;-41
2022/08/18 07:51:23;;;;;;;7.13;5.97;;;29.10;37.50;;;;;;4970917;28;20440;-41
2022/08/18 07:54:13;;;;;;;6.53;4.90;;;29.10;37.20;;;;;;4971441;28;20422;-41
2022/08/18 07:56:53;;;;;;;7.30;5.50;;;29.20;37.40;;;;;;4975491;28;20407;-41
2022/08/18 07:59:25;;;;;;;6.33;4.80;;;29.20;37.90;;;;;;4975442;28;20925;-41
2022/08/18 08:02:25;;;;;;;6.87;5.40;;;29.20;37.90;;;;;;4975723;28;20454;-41
2022/08/18 08:05:05;;;;;;;6.60;5.53;;;29.30;38.30;;;;;;4975424;28;20454;-40
2022/08/18 08:07:51;;;;;;;6.73;5.73;;;29.30;37.90;;;;;;4976530;28;20418;-41
2022/08/18 08:10:39;;;;;;;11.43;6.20;;;29.30;36.90;;;;;;4977102;28;20424;-41
2022/08/18 08:13:31;;;;;;;5.20;4.60;;;29.30;37.00;;;;;;4976848;28;20407;-41
2022/08/18 08:16:15;;;;;;;8.73;6.60;;;29.30;37.20;;;;;;4972884;28;20426;-41
2022/08/18 08:19:09;;;;;;;9.30;5.40;;;29.30;36.90;;;;;;4971296;28;20422;-41
2022/08/18 08:21:43;;;;;;;12.60;7.07;;;29.40;37.00;;;;;;5000640;28;20457;-41
2022/08/18 08:24:15;;;;;;;8.90;6.20;;;29.40;37.60;;;;;;4974048;28;20412;-41
2022/08/18 08:26:46;;;;;;;6.57;5.23;;;29.40;37.70;;;;;;4974160;28;20446;-41
2022/08/18 08:29:35;;;;;;;6.63;5.77;;;29.40;37.90;;;;;;4973775;28;20454;-41
2022/08/18 08:32:04;;;;;;;5.67;4.90;;;29.50;37.60;;;;;;4974059;28;20467;-41
2022/08/18 08:34:50;;;;;;;6.73;5.20;;;29.50;38.20;;;;;;4973918;28;20423;-41
2022/08/18 08:37:29;;;;;;;6.50;5.60;;;29.50;37.70;;;;;;4973743;28;20498;-41
2022/08/18 08:40:13;;;;;;;8.77;6.63;;;29.50;37.40;;;;;;4974085;28;20632;-41
2022/08/18 08:42:44;;;;;;;6.63;5.90;;;29.60;37.60;;;;;;4973785;28;20435;-41
2022/08/18 08:45:32;;;;;;;6.60;5.50;;;29.70;37.50;;;;;;4973540;28;20456;-41
2022/08/18 08:48:23;;;;;;;6.63;5.20;;;29.80;37.40;;;;;;4973927;28;20399;-43
2022/08/18 08:50:59;;;;;;;9.73;6.60;;;29.90;37.60;;;;;;4973336;28;20493;-43
2022/08/18 08:54:02;;;;;;;8.23;5.43;;;30.00;38.00;;;;;;4973409;28;20910;-41
2022/08/18 08:56:39;;;;;;;6.30;5.03;;;30.30;38.30;;;;;;4980662;28;20425;-41
2022/08/18 08:59:09;;;;;;;6.80;5.50;;;30.60;38.00;;;;;;4973440;28;20414;-41
2022/08/18 09:01:34;;;;;;;8.67;6.37;;;30.80;37.40;;;;;;4973146;28;20451;-41
2022/08/18 09:04:24;;;;;;;8.70;6.10;;;31.00;37.40;;;;;;4971888;28;20582;-41
2022/08/18 09:06:56;;;;;;;9.60;6.37;;;31.20;37.00;;;;;;4972963;28;20153;-41
2022/08/18 09:09:59;;;;;;;8.50;7.00;;;31.40;36.20;;;;;;4973222;28;20414;-41
2022/08/18 09:12:51;;;;;;;10.23;5.77;;;31.50;36.40;;;;;;4972986;28;20952;-41
2022/08/18 09:15:23;;;;;;;9.00;6.23;;;31.60;36.20;;;;;;4973071;28;20814;-41
2022/08/18 09:18:34;;;;;;;6.93;5.87;;;31.60;35.20;;;;;;4973027;28;20410;-41
2022/08/18 09:21:10;;;;;;;8.63;5.30;;;31.70;33.90;;;;;;5032865;28;20485;-40
2022/08/18 09:23:45;;;;;;;5.77;5.03;;;31.80;34.60;;;;;;4980885;28;20430;-40
2022/08/18 09:26:52;;;;;;;7.70;5.63;;;32.00;35.10;;;;;;4972568;28;20492;-41
2022/08/18 09:29:36;;;;;;;9.60;5.97;;;32.10;34.10;;;;;;5032214;28;20862;-41
2022/08/18 09:32:20;;;;;;;8.83;5.50;;;32.20;34.10;;;;;;5032106;28;20530;-41
2022/08/18 09:35:29;;;;;;;7.70;5.73;;;32.30;33.70;;;;;;5032198;28;20416;-41
2022/08/18 09:43:51;;;;;;;6.97;6.17;;;32.40;34.10;;;;;;5054762;28;20414;-41
2022/08/18 09:46:42;;;;;;;10.80;6.13;;;32.30;33.50;;;;;;5054087;28;20467;-41
2022/08/18 09:49:25;;;;;;;6.50;5.80;;;32.30;33.30;;;;;;5054247;28;21000;-41
2022/08/18 09:52:20;;;;;;;7.87;6.43;;;32.30;32.60;;;;;;5054219;28;20410;-42
2022/08/18 09:54:58;;;;;;;9.07;6.97;;;32.30;32.50;;;;;;5054158;28;20414;-41
2022/08/18 09:57:27;;;;;;;7.33;5.77;;;32.30;33.10;;;;;;5053928;28;20449;-42
2022/08/18 10:00:11;;;;;;;14.27;6.53;;;32.30;33.30;;;;;;5054146;28;20408;-41
2022/08/18 10:02:40;;;;;;;9.13;6.10;;;32.30;33.30;;;;;;5054108;28;20499;-41
2022/08/18 10:05:21;;;;;;;7.50;4.97;;;32.20;32.80;;;;;;5054236;28;20516;-42
2022/08/18 10:08:02;;;;;;;7.00;6.37;;;32.30;33.10;;;;;;5053636;28;20469;-41
2022/08/18 10:10:54;;;;;;;7.77;6.27;;;32.30;33.10;;;;;;5053870;28;20434;-41
2022/08/18 10:13:54;;;;;;;6.93;6.10;;;32.30;34.00;;;;;;5054144;28;20395;-41
2022/08/18 10:16:33;;;;;;;6.93;5.70;;;32.30;35.10;;;;;;5053636;28;20407;-41
2022/08/18 10:19:06;;;;;;;7.60;5.80;;;32.20;34.00;;;;;;5053782;28;20976;-41
2022/08/18 10:22:11;;;;;;;10.60;7.00;;;32.20;33.60;;;;;;5053580;28;20438;-41
2022/08/18 10:24:54;;;;;;;7.30;5.10;;;32.20;34.00;;;;;;4972542;28;20466;-41
2022/08/18 10:27:45;;;;;;;7.47;5.37;;;32.30;33.50;;;;;;4972293;28;20431;-41
2022/08/18 10:30:34;;;;;;;7.80;5.00;;;32.20;32.30;;;;;;4972617;28;20857;-41
2022/08/18 10:33:11;;;;;;;6.20;4.50;;;32.20;34.00;;;;;;4945063;28;20414;-41
2022/08/18 10:35:36;;;;;;;9.40;5.10;;;32.20;33.00;;;;;;4972195;28;20418;-41
2022/08/18 10:38:20;;;;;;;7.90;4.80;;;32.10;32.60;;;;;;4972093;28;20526;-40
2022/08/18 10:41:00;;;;;;;8.33;4.97;;;32.10;32.10;;;;;;4972354;28;20179;-41
2022/08/18 10:43:34;;;;;;;6.20;5.60;;;32.10;32.20;;;;;;4971677;28;20416;-41
2022/08/18 10:46:00;;;;;;;14.03;5.77;;;32.00;32.40;;;;;;4955809;28;20506;-41
2022/08/18 10:48:29;;;;;;;6.03;4.77;;;32.00;33.20;;;;;;4972080;28;20431;-40
2022/08/18 10:51:16;;;;;;;12.70;5.40;;;32.00;33.60;;;;;;4972084;28;20422;-40
2022/08/18 10:53:48;;;;;;;5.67;5.07;;;32.00;33.60;;;;;;4971932;28;20415;-42
2022/08/18 10:56:34;;;;;;;6.97;6.00;;;32.00;33.00;;;;;;5041057;28;20415;-41
2022/08/18 10:59:19;;;;;;;10.10;5.70;;;32.00;33.50;;;;;;5052983;28;20431;-42
2022/08/18 11:01:53;;;;;;;5.60;4.90;;;32.00;33.00;;;;;;5052945;28;20478;-40
2022/08/18 11:04:27;;;;;;;7.10;4.87;;;31.90;32.20;;;;;;5052690;28;20454;-41
2022/08/18 11:07:03;;;;;;;6.13;4.90;;;32.00;32.90;;;;;;5052662;28;20415;-41
2022/08/18 11:09:30;;;;;;;5.70;5.10;;;31.90;32.40;;;;;;5051604;28;20399;-41
2022/08/18 11:12:02;;;;;;;4.90;4.23;;;31.90;32.70;;;;;;5052552;28;20977;-42
2022/08/18 11:15:04;;;;;;;7.60;4.47;;;31.90;32.40;;;;;;5052582;28;20419;-40
2022/08/18 11:17:55;;;;;;;8.03;5.57;;;31.80;32.40;;;;;;5052310;28;20438;-42
2022/08/18 11:20:26;;;;;;;6.57;5.07;;;31.80;32.20;;;;;;5052816;28;20447;-41
2022/08/18 11:22:56;;;;;;;6.50;5.37;;;31.70;32.60;;;;;;5052612;28;20407;-41
2022/08/18 11:25:28;;;;;;;5.30;4.50;;;31.70;32.80;;;;;;5052465;28;20451;-41
2022/08/18 11:27:55;;;;;;;9.77;4.47;;;31.70;33.40;;;;;;5052193;28;20503;-42
2022/08/18 11:30:24;;;;;;;6.67;5.40;;;31.70;33.90;;;;;;5052405;28;20404;-40
2022/08/18 11:32:50;;;;;;;6.90;5.37;;;31.70;32.90;;;;;;5052337;28;20419;-41
2022/08/18 11:35:20;;;;;;;5.80;4.70;;;31.80;33.20;;;;;;5052168;28;20470;-42
2022/08/18 11:37:56;;;;;;;9.33;5.10;;;31.80;33.50;;;;;;5052198;28;21021;-39
2022/08/18 11:40:40;;;;;;;7.37;5.30;;;31.90;33.10;;;;;;5052457;28;20442;-42
2022/08/18 11:43:13;;;;;;;6.40;4.33;;;31.90;34.10;;;;;;5052302;28;20920;-40
2022/08/18 11:45:51;;;;;;;6.30;5.70;;;31.80;34.00;;;;;;5051974;28;20447;-42
2022/08/18 11:48:36;;;;;;;7.30;5.83;;;31.80;34.50;;;;;;5052233;28;20458;-42
2022/08/18 11:51:19;;;;;;;6.10;5.20;;;31.70;33.90;;;;;;5052058;28;20483;-40
2022/08/18 11:53:48;;;;;;;6.20;5.60;;;31.70;34.10;;;;;;5052013;28;20391;-41
2022/08/18 11:56:35;;;;;;;6.53;5.30;;;31.70;33.90;;;;;;5051056;28;20451;-39
2022/08/18 11:59:06;;;;;;;6.03;4.80;;;31.60;33.00;;;;;;5051976;28;20459;-40
2022/08/18 12:01:50;;;;;;;5.43;4.93;;;31.50;33.60;;;;;;5052044;28;20494;-41
2022/08/18 12:04:28;;;;;;;8.53;6.23;;;31.50;32.70;;;;;;5051861;28;20406;-41
2022/08/18 12:06:58;;;;;;;5.17;4.20;;;31.40;33.80;;;;;;5051836;28;20380;-41
2022/08/18 12:09:47;;;;;;;12.00;5.27;;;31.30;33.90;;;;;;5051834;28;20415;-41
2022/08/18 12:12:13;;;;;;;7.73;4.90;;;31.30;33.90;;;;;;5052126;28;20772;-40
2022/08/18 12:14:53;;;;;;;8.10;5.30;;;31.20;34.20;;;;;;5051777;28;20918;-41
2022/08/18 12:17:19;;;;;;;6.50;5.40;;;31.20;33.80;;;;;;5051406;28;20223;-41
2022/08/18 12:19:45;;;;;;;6.00;5.40;;;31.10;34.00;;;;;;5052024;28;20490;-41
2022/08/18 12:22:23;;;;;;;6.53;5.00;;;31.10;34.20;;;;;;5051778;28;20832;-40
2022/08/18 12:24:49;;;;;;;10.00;5.70;;;31.20;34.60;;;;;;5051651;28;20241;-41
2022/08/18 12:27:17;;;;;;;8.77;4.93;;;31.20;35.00;;;;;;5051344;28;20467;-40
2022/08/18 12:29:43;;;;;;;7.07;5.00;;;31.20;34.90;;;;;;5051576;28;20204;-41
2022/08/18 12:32:10;;;;;;;6.47;5.77;;;31.10;33.40;;;;;;5051544;28;20442;-40
2022/08/18 12:34:36;;;;;;;7.37;6.00;;;31.20;33.70;;;;;;5051605;28;20655;-41
2022/08/18 12:37:02;;;;;;;6.93;5.70;;;31.30;34.30;;;;;;5051427;28;20412;-42
2022/08/18 12:39:29;;;;;;;6.93;6.27;;;31.30;34.20;;;;;;5051988;28;20929;-41
2022/08/18 12:41:57;;;;;;;5.57;5.07;;;31.40;34.00;;;;;;5051580;28;20408;-42
2022/08/18 12:44:23;;;;;;;7.53;5.20;;;31.50;33.70;;;;;;5051375;28;20451;-40
2022/08/18 12:46:49;;;;;;;10.40;5.10;;;31.60;33.40;;;;;;5051279;28;20914;-40
2022/08/18 12:49:18;;;;;;;5.53;4.93;;;31.70;33.40;;;;;;5051454;28;20438;-42
2022/08/18 12:51:44;;;;;;;6.20;5.40;;;31.70;33.40;;;;;;5051470;28;20404;-40
2022/08/18 12:54:10;;;;;;;7.47;5.17;;;31.70;33.70;;;;;;5051498;28;20903;-41
2022/08/18 12:56:36;;;;;;;7.63;4.73;;;31.80;33.60;;;;;;5051478;28;20400;-41
2022/08/18 12:59:05;;;;;;;6.70;4.83;;;31.80;34.00;;;;;;5051334;28;20438;-42
2022/08/18 13:01:35;;;;;;;8.10;4.47;;;31.90;33.90;;;;;;5051659;28;20439;-41
2022/08/18 13:04:02;;;;;;;10.40;5.60;;;31.90;33.70;;;;;;5051351;28;20418;-41
2022/08/18 13:06:30;;;;;;;6.90;5.07;;;31.90;34.20;;;;;;5052243;28;20980;-42
2022/08/18 13:08:56;;;;;;;7.00;5.60;;;31.90;33.70;;;;;;5055374;28;20470;-41
2022/08/18 13:11:22;;;;;;;5.50;4.70;;;31.90;33.80;;;;;;5055012;28;20407;-40
2022/08/18 13:13:50;;;;;;;8.20;5.73;;;31.90;33.80;;;;;;5054868;28;20404;-42
2022/08/18 13:16:17;;;;;;;9.37;5.20;;;31.90;34.20;;;;;;5054935;28;20420;-41
2022/08/18 13:18:43;;;;;;;8.60;5.70;;;31.90;34.40;;;;;;5054640;28;20435;-42
2022/08/18 13:21:14;;;;;;;6.40;5.40;;;31.90;34.50;;;;;;5054746;28;20431;-41
2022/08/18 13:23:41;;;;;;;6.03;5.43;;;32.00;34.70;;;;;;5054856;28;21077;-42
2022/08/18 13:26:20;;;;;;;6.90;6.03;;;31.90;34.50;;;;;;5054313;28;21013;-42
2022/08/18 13:28:46;;;;;;;10.07;6.80;;;31.90;34.40;;;;;;5054682;28;20890;-41
2022/08/18 13:31:12;;;;;;;6.20;5.60;;;31.90;34.50;;;;;;5054570;28;20408;-42
2022/08/18 13:33:39;;;;;;;6.33;5.70;;;31.90;34.60;;;;;;5054561;28;20487;-42